sensor_id;sensor_type;location;lat;lon;timestamp;pressure;altitude;pressure_sealevel;temperature;humidity
13594;BME280;6449;47.666;9.160;2023-12-28T00:01:48;97368.09;;;2.44;100.00
13594;BME280;6449;47.666;9.160;2023-12-28T00:06:42;97382.84;;;2.42;100.00
13594;BME280;6449;47.666;9.160;2023-12-28T00:11:39;97383.25;;;2.55;100.00
13594;BME280;6449;47.666;9.160;2023-12-28T00:16:33;97365.34;;;2.49;100.00
13594;BME280;6449;47.666;9.160;2023-12-28T00:21:29;97391.78;;;2.08;100.00
13594;BME280;6449;47.666;9.160;2023-12-28T00:26:23;97383.00;;;2.13;100.00
13594;BME280;6449;47.666;9.160;2023-12-28T00:31:17;97382.00;;;2.17;100.00
13594;BME280;6449;47.666;9.160;2023-12-28T00:36:10;97371.50;;;2.46;100.00
13594;BME280;6449;47.666;9.160;2023-12-28T00:41:05;97384.97;;;2.56;100.00
13594;BME280;6449;47.666;9.160;2023-12-28T00:45:58;97389.72;;;2.18;100.00
13594;BME280;6449;47.666;9.160;2023-12-28T00:50:53;97386.88;;;2.26;100.00
13594;BME280;6449;47.666;9.160;2023-12-28T00:55:50;97382.31;;;2.32;100.00
13594;BME280;6449;47.666;9.160;2023-12-28T01:00:45;97386.72;;;2.54;100.00
13594;BME280;6449;47.666;9.160;2023-12-28T01:05:39;97394.41;;;2.57;100.00
13594;BME280;6449;47.666;9.160;2023-12-28T01:10:32;97387.13;;;2.43;100.00
13594;BME280;6449;47.666;9.160;2023-12-28T01:15:25;97387.03;;;2.46;100.00
13594;BME280;6449;47.666;9.160;2023-12-28T01:20:20;97406.03;;;2.45;100.00
13594;BME280;6449;47.666;9.160;2023-12-28T01:25:14;97397.38;;;2.70;100.00
13594;BME280;6449;47.666;9.160;2023-12-28T01:30:08;97404.47;;;2.65;100.00
13594;BME280;6449;47.666;9.160;2023-12-28T01:35:02;97413.28;;;2.59;100.00
13594;BME280;6449;47.666;9.160;2023-12-28T01:39:57;97411.72;;;2.55;100.00
13594;BME280;6449;47.666;9.160;2023-12-28T01:44:51;97415.50;;;2.46;100.00
13594;BME280;6449;47.666;9.160;2023-12-28T01:49:44;97439.88;;;2.39;100.00
13594;BME280;6449;47.666;9.160;2023-12-28T01:54:38;97433.97;;;2.35;100.00
13594;BME280;6449;47.666;9.160;2023-12-28T01:59:34;97427.38;;;2.27;100.00
13594;BME280;6449;47.666;9.160;2023-12-28T02:04:27;97417.25;;;2.44;100.00
13594;BME280;6449;47.666;9.160;2023-12-28T02:09:21;97433.94;;;2.10;100.00
13594;BME280;6449;47.666;9.160;2023-12-28T02:14:15;97430.09;;;2.22;100.00
13594;BME280;6449;47.666;9.160;2023-12-28T02:19:21;97412.06;;;2.46;100.00
13594;BME280;6449;47.666;9.160;2023-12-28T02:24:18;97411.31;;;2.66;100.00
13594;BME280;6449;47.666;9.160;2023-12-28T02:29:13;97404.91;;;2.52;100.00
13594;BME280;6449;47.666;9.160;2023-12-28T02:34:13;97420.00;;;2.40;100.00
13594;BME280;6449;47.666;9.160;2023-12-28T02:39:10;97431.41;;;2.34;100.00
13594;BME280;6449;47.666;9.160;2023-12-28T02:44:04;97426.75;;;2.45;100.00
13594;BME280;6449;47.666;9.160;2023-12-28T02:48:59;97441.13;;;2.27;100.00
13594;BME280;6449;47.666;9.160;2023-12-28T02:53:53;97449.75;;;1.75;100.00
13594;BME280;6449;47.666;9.160;2023-12-28T02:58:46;97447.88;;;1.80;100.00
13594;BME280;6449;47.666;9.160;2023-12-28T03:03:40;97445.00;;;1.89;100.00
13594;BME280;6449;47.666;9.160;2023-12-28T03:08:35;97447.50;;;1.92;100.00
13594;BME280;6449;47.666;9.160;2023-12-28T03:13:28;97440.72;;;2.15;100.00
13594;BME280;6449;47.666;9.160;2023-12-28T03:18:24;97435.81;;;2.32;100.00
13594;BME280;6449;47.666;9.160;2023-12-28T03:23:17;97453.31;;;1.99;100.00
13594;BME280;6449;47.666;9.160;2023-12-28T03:28:12;97455.63;;;1.80;100.00
13594;BME280;6449;47.666;9.160;2023-12-28T03:33:05;97446.84;;;1.86;100.00
13594;BME280;6449;47.666;9.160;2023-12-28T03:37:59;97443.81;;;1.99;100.00
13594;BME280;6449;47.666;9.160;2023-12-28T03:42:53;97462.06;;;1.95;100.00
13594;BME280;6449;47.666;9.160;2023-12-28T03:47:48;97463.88;;;1.91;100.00
13594;BME280;6449;47.666;9.160;2023-12-28T03:52:43;97455.00;;;2.00;100.00
13594;BME280;6449;47.666;9.160;2023-12-28T03:57:36;97456.44;;;2.08;100.00
13594;BME280;6449;47.666;9.160;2023-12-28T04:02:31;97438.44;;;2.05;100.00
13594;BME280;6449;47.666;9.160;2023-12-28T04:07:25;97448.84;;;2.02;100.00
13594;BME280;6449;47.666;9.160;2023-12-28T04:12:19;97455.25;;;1.92;100.00
13594;BME280;6449;47.666;9.160;2023-12-28T04:17:12;97462.09;;;1.67;100.00
13594;BME280;6449;47.666;9.160;2023-12-28T04:22:06;97450.66;;;1.74;100.00
13594;BME280;6449;47.666;9.160;2023-12-28T04:27:00;97467.22;;;1.68;100.00
13594;BME280;6449;47.666;9.160;2023-12-28T04:31:54;97474.53;;;1.82;100.00
13594;BME280;6449;47.666;9.160;2023-12-28T04:36:48;97458.47;;;1.99;100.00
13594;BME280;6449;47.666;9.160;2023-12-28T04:41:41;97462.34;;;2.12;100.00
13594;BME280;6449;47.666;9.160;2023-12-28T04:46:39;97448.63;;;2.10;100.00
13594;BME280;6449;47.666;9.160;2023-12-28T04:51:34;97430.16;;;2.21;100.00
13594;BME280;6449;47.666;9.160;2023-12-28T04:56:28;97427.50;;;2.22;100.00
13594;BME280;6449;47.666;9.160;2023-12-28T05:01:21;97434.34;;;2.25;100.00
13594;BME280;6449;47.666;9.160;2023-12-28T05:06:16;97441.03;;;2.30;100.00
13594;BME280;6449;47.666;9.160;2023-12-28T05:11:09;97422.94;;;2.30;100.00
13594;BME280;6449;47.666;9.160;2023-12-28T05:16:03;97432.31;;;2.08;100.00
13594;BME280;6449;47.666;9.160;2023-12-28T05:20:57;97433.34;;;2.02;100.00
13594;BME280;6449;47.666;9.160;2023-12-28T05:25:52;97429.19;;;2.23;100.00
13594;BME280;6449;47.666;9.160;2023-12-28T05:30:48;97436.03;;;2.26;100.00
13594;BME280;6449;47.666;9.160;2023-12-28T05:35:41;97433.97;;;2.35;100.00
13594;BME280;6449;47.666;9.160;2023-12-28T05:40:35;97431.75;;;2.25;100.00
13594;BME280;6449;47.666;9.160;2023-12-28T05:45:29;97423.81;;;2.04;100.00
13594;BME280;6449;47.666;9.160;2023-12-28T05:50:23;97433.31;;;1.77;100.00
13594;BME280;6449;47.666;9.160;2023-12-28T05:55:16;97423.91;;;2.01;100.00
13594;BME280;6449;47.666;9.160;2023-12-28T06:00:11;97423.47;;;2.40;100.00
13594;BME280;6449;47.666;9.160;2023-12-28T06:05:06;97419.69;;;2.49;100.00
13594;BME280;6449;47.666;9.160;2023-12-28T06:10:00;97424.47;;;2.61;100.00
13594;BME280;6449;47.666;9.160;2023-12-28T06:14:54;97415.88;;;2.59;100.00
13594;BME280;6449;47.666;9.160;2023-12-28T06:19:47;97433.47;;;2.49;100.00
13594;BME280;6449;47.666;9.160;2023-12-28T06:24:43;97451.28;;;2.08;100.00
13594;BME280;6449;47.666;9.160;2023-12-28T06:29:37;97440.13;;;2.06;100.00
13594;BME280;6449;47.666;9.160;2023-12-28T06:34:31;97432.69;;;1.97;100.00
13594;BME280;6449;47.666;9.160;2023-12-28T06:39:27;97422.34;;;1.97;100.00
13594;BME280;6449;47.666;9.160;2023-12-28T06:44:25;97417.84;;;2.02;100.00
13594;BME280;6449;47.666;9.160;2023-12-28T06:49:18;97417.34;;;1.91;100.00
13594;BME280;6449;47.666;9.160;2023-12-28T06:54:15;97420.28;;;2.07;100.00
13594;BME280;6449;47.666;9.160;2023-12-28T06:59:10;97425.06;;;1.93;100.00
13594;BME280;6449;47.666;9.160;2023-12-28T07:04:05;97429.84;;;2.05;100.00
13594;BME280;6449;47.666;9.160;2023-12-28T07:08:59;97428.34;;;2.23;100.00
13594;BME280;6449;47.666;9.160;2023-12-28T07:13:52;97445.56;;;1.99;100.00
13594;BME280;6449;47.666;9.160;2023-12-28T07:18:46;97460.09;;;2.28;100.00
13594;BME280;6449;47.666;9.160;2023-12-28T07:23:41;97470.44;;;2.28;100.00
13594;BME280;6449;47.666;9.160;2023-12-28T07:28:35;97489.94;;;1.85;100.00
13594;BME280;6449;47.666;9.160;2023-12-28T07:33:28;97473.22;;;1.95;100.00
13594;BME280;6449;47.666;9.160;2023-12-28T07:38:22;97483.63;;;1.94;100.00
13594;BME280;6449;47.666;9.160;2023-12-28T07:43:17;97465.75;;;2.13;100.00
13594;BME280;6449;47.666;9.160;2023-12-28T07:48:12;97468.53;;;2.33;100.00
13594;BME280;6449;47.666;9.160;2023-12-28T07:53:05;97471.03;;;2.36;100.00
13594;BME280;6449;47.666;9.160;2023-12-28T07:57:59;97462.28;;;2.40;100.00
13594;BME280;6449;47.666;9.160;2023-12-28T08:02:54;97478.31;;;2.25;100.00
13594;BME280;6449;47.666;9.160;2023-12-28T08:07:47;97459.72;;;2.14;100.00
13594;BME280;6449;47.666;9.160;2023-12-28T08:12:40;97449.56;;;2.07;100.00
13594;BME280;6449;47.666;9.160;2023-12-28T08:17:35;97459.03;;;2.08;100.00
13594;BME280;6449;47.666;9.160;2023-12-28T08:22:30;97452.91;;;2.36;100.00
13594;BME280;6449;47.666;9.160;2023-12-28T08:27:23;97440.63;;;2.43;100.00
13594;BME280;6449;47.666;9.160;2023-12-28T08:32:17;97454.50;;;2.40;100.00
13594;BME280;6449;47.666;9.160;2023-12-28T08:37:10;97444.84;;;2.45;100.00
13594;BME280;6449;47.666;9.160;2023-12-28T08:42:08;97442.28;;;2.69;100.00
13594;BME280;6449;47.666;9.160;2023-12-28T08:47:02;97446.41;;;2.49;100.00
13594;BME280;6449;47.666;9.160;2023-12-28T08:51:55;97442.38;;;2.66;100.00
13594;BME280;6449;47.666;9.160;2023-12-28T08:56:49;97434.91;;;2.81;100.00
13594;BME280;6449;47.666;9.160;2023-12-28T09:01:47;97432.69;;;2.96;100.00
13594;BME280;6449;47.666;9.160;2023-12-28T09:06:40;97439.94;;;2.86;100.00
13594;BME280;6449;47.666;9.160;2023-12-28T09:11:34;97432.63;;;2.74;100.00
13594;BME280;6449;47.666;9.160;2023-12-28T09:16:27;97449.06;;;2.73;100.00
13594;BME280;6449;47.666;9.160;2023-12-28T09:21:22;97449.16;;;2.70;100.00
13594;BME280;6449;47.666;9.160;2023-12-28T09:26:17;97455.59;;;2.83;100.00
13594;BME280;6449;47.666;9.160;2023-12-28T09:31:11;97473.72;;;2.83;100.00
13594;BME280;6449;47.666;9.160;2023-12-28T09:36:06;97478.44;;;2.95;100.00
13594;BME280;6449;47.666;9.160;2023-12-28T09:41:11;97487.34;;;2.88;100.00
13594;BME280;6449;47.666;9.160;2023-12-28T09:46:07;97501.13;;;3.12;100.00
13594;BME280;6449;47.666;9.160;2023-12-28T09:51:02;97472.94;;;3.28;100.00
13594;BME280;6449;47.666;9.160;2023-12-28T09:55:55;97471.47;;;3.21;100.00
13594;BME280;6449;47.666;9.160;2023-12-28T10:00:50;97481.09;;;3.17;100.00
13594;BME280;6449;47.666;9.160;2023-12-28T10:05:45;97480.50;;;3.09;100.00
13594;BME280;6449;47.666;9.160;2023-12-28T10:10:39;97473.94;;;3.24;100.00
13594;BME280;6449;47.666;9.160;2023-12-28T10:15:33;97455.47;;;3.33;100.00
13594;BME280;6449;47.666;9.160;2023-12-28T10:20:28;97450.34;;;3.31;100.00
13594;BME280;6449;47.666;9.160;2023-12-28T10:25:22;97433.03;;;3.32;100.00
13594;BME280;6449;47.666;9.160;2023-12-28T10:30:21;97435.31;;;3.18;100.00
13594;BME280;6449;47.666;9.160;2023-12-28T10:35:15;97441.41;;;3.17;100.00
13594;BME280;6449;47.666;9.160;2023-12-28T10:40:13;97431.78;;;3.42;100.00
13594;BME280;6449;47.666;9.160;2023-12-28T10:45:11;97429.31;;;3.39;100.00
13594;BME280;6449;47.666;9.160;2023-12-28T10:50:10;97422.09;;;3.47;100.00
13594;BME280;6449;47.666;9.160;2023-12-28T10:55:21;97421.59;;;3.59;100.00
13594;BME280;6449;47.666;9.160;2023-12-28T11:00:25;97404.38;;;3.58;100.00
13594;BME280;6449;47.666;9.160;2023-12-28T11:05:21;97401.03;;;3.77;100.00
13594;BME280;6449;47.666;9.160;2023-12-28T11:10:18;97397.69;;;3.95;100.00
13594;BME280;6449;47.666;9.160;2023-12-28T11:15:14;97402.69;;;4.00;100.00
13594;BME280;6449;47.666;9.160;2023-12-28T11:20:09;97404.19;;;4.05;100.00
13594;BME280;6449;47.666;9.160;2023-12-28T11:25:03;97390.03;;;4.12;100.00
13594;BME280;6449;47.666;9.160;2023-12-28T11:29:59;97380.97;;;4.23;100.00
13594;BME280;6449;47.666;9.160;2023-12-28T11:34:57;97377.19;;;4.30;100.00
13594;BME280;6449;47.666;9.160;2023-12-28T11:39:51;97378.88;;;4.31;100.00
13594;BME280;6449;47.666;9.160;2023-12-28T11:44:44;97376.41;;;4.48;100.00
13594;BME280;6449;47.666;9.160;2023-12-28T11:49:40;97370.78;;;4.57;100.00
13594;BME280;6449;47.666;9.160;2023-12-28T11:54:35;97368.53;;;4.50;100.00
13594;BME280;6449;47.666;9.160;2023-12-28T11:59:28;97366.31;;;4.61;100.00
13594;BME280;6449;47.666;9.160;2023-12-28T12:04:23;97363.34;;;4.68;100.00
13594;BME280;6449;47.666;9.160;2023-12-28T12:09:18;97367.78;;;4.66;100.00
13594;BME280;6449;47.666;9.160;2023-12-28T12:14:15;97369.41;;;4.69;100.00
13594;BME280;6449;47.666;9.160;2023-12-28T12:19:09;97369.81;;;4.79;100.00
13594;BME280;6449;47.666;9.160;2023-12-28T12:24:03;97371.25;;;4.86;100.00
13594;BME280;6449;47.666;9.160;2023-12-28T12:28:58;97372.78;;;4.90;100.00
13594;BME280;6449;47.666;9.160;2023-12-28T12:33:52;97356.16;;;4.94;100.00
13594;BME280;6449;47.666;9.160;2023-12-28T12:38:46;97347.38;;;4.96;100.00
13594;BME280;6449;47.666;9.160;2023-12-28T12:43:40;97348.47;;;5.10;100.00
13594;BME280;6449;47.666;9.160;2023-12-28T12:48:35;97341.53;;;5.10;100.00
13594;BME280;6449;47.666;9.160;2023-12-28T12:53:33;97345.03;;;5.09;100.00
13594;BME280;6449;47.666;9.160;2023-12-28T12:58:27;97351.72;;;5.15;100.00
13594;BME280;6449;47.666;9.160;2023-12-28T13:03:28;97342.38;;;5.11;100.00
13594;BME280;6449;47.666;9.160;2023-12-28T13:08:24;97336.13;;;5.15;100.00
13594;BME280;6449;47.666;9.160;2023-12-28T13:13:17;97335.28;;;5.14;100.00
13594;BME280;6449;47.666;9.160;2023-12-28T13:18:11;97345.38;;;5.20;100.00
13594;BME280;6449;47.666;9.160;2023-12-28T13:23:04;97353.81;;;5.25;100.00
13594;BME280;6449;47.666;9.160;2023-12-28T13:28:00;97343.41;;;5.25;100.00
13594;BME280;6449;47.666;9.160;2023-12-28T13:32:54;97353.72;;;5.27;100.00
13594;BME280;6449;47.666;9.160;2023-12-28T13:37:48;97353.50;;;5.32;100.00
13594;BME280;6449;47.666;9.160;2023-12-28T13:42:42;97354.75;;;5.42;100.00
13594;BME280;6449;47.666;9.160;2023-12-28T13:47:36;97353.06;;;5.41;100.00
13594;BME280;6449;47.666;9.160;2023-12-28T13:52:30;97353.22;;;5.38;100.00
13594;BME280;6449;47.666;9.160;2023-12-28T13:57:23;97351.47;;;5.38;100.00
13594;BME280;6449;47.666;9.160;2023-12-28T14:02:17;97346.03;;;5.43;100.00
13594;BME280;6449;47.666;9.160;2023-12-28T14:07:12;97350.56;;;5.39;100.00
13594;BME280;6449;47.666;9.160;2023-12-28T14:12:06;97344.34;;;5.42;100.00
13594;BME280;6449;47.666;9.160;2023-12-28T14:17:00;97347.28;;;5.53;100.00
13594;BME280;6449;47.666;9.160;2023-12-28T14:21:54;97342.06;;;5.53;100.00
13594;BME280;6449;47.666;9.160;2023-12-28T14:26:54;97356.72;;;5.56;100.00
13594;BME280;6449;47.666;9.160;2023-12-28T14:31:50;97352.94;;;5.44;100.00
13594;BME280;6449;47.666;9.160;2023-12-28T14:36:46;97344.22;;;5.45;100.00
13594;BME280;6449;47.666;9.160;2023-12-28T14:41:42;97340.56;;;5.49;100.00
13594;BME280;6449;47.666;9.160;2023-12-28T14:46:37;97344.75;;;5.51;100.00
13594;BME280;6449;47.666;9.160;2023-12-28T14:51:31;97344.69;;;5.53;100.00
13594;BME280;6449;47.666;9.160;2023-12-28T14:56:25;97350.03;;;5.50;100.00
13594;BME280;6449;47.666;9.160;2023-12-28T15:01:27;97345.91;;;5.46;100.00
13594;BME280;6449;47.666;9.160;2023-12-28T15:06:24;97358.16;;;5.44;100.00
13594;BME280;6449;47.666;9.160;2023-12-28T15:11:19;97359.81;;;5.45;100.00
13594;BME280;6449;47.666;9.160;2023-12-28T15:16:29;97335.63;;;5.43;100.00
13594;BME280;6449;47.666;9.160;2023-12-28T15:21:25;97348.00;;;5.38;100.00
13594;BME280;6449;47.666;9.160;2023-12-28T15:26:19;97333.34;;;5.37;100.00
13594;BME280;6449;47.666;9.160;2023-12-28T15:31:15;97335.09;;;5.36;100.00
13594;BME280;6449;47.666;9.160;2023-12-28T15:36:09;97333.50;;;5.34;100.00
13594;BME280;6449;47.666;9.160;2023-12-28T15:41:04;97324.06;;;5.31;100.00
13594;BME280;6449;47.666;9.160;2023-12-28T15:45:57;97339.22;;;5.23;100.00
13594;BME280;6449;47.666;9.160;2023-12-28T15:50:51;97333.19;;;5.22;100.00
13594;BME280;6449;47.666;9.160;2023-12-28T15:55:44;97328.66;;;5.26;100.00
13594;BME280;6449;47.666;9.160;2023-12-28T16:00:40;97333.09;;;5.24;100.00
13594;BME280;6449;47.666;9.160;2023-12-28T16:05:36;97336.66;;;5.21;100.00
13594;BME280;6449;47.666;9.160;2023-12-28T16:10:34;97335.16;;;5.17;100.00
13594;BME280;6449;47.666;9.160;2023-12-28T16:15:28;97323.84;;;5.18;100.00
13594;BME280;6449;47.666;9.160;2023-12-28T16:20:25;97332.59;;;5.16;100.00
13594;BME280;6449;47.666;9.160;2023-12-28T16:25:19;97325.88;;;5.12;100.00
13594;BME280;6449;47.666;9.160;2023-12-28T16:30:12;97320.75;;;5.10;100.00
13594;BME280;6449;47.666;9.160;2023-12-28T16:35:07;97319.06;;;5.09;100.00
13594;BME280;6449;47.666;9.160;2023-12-28T16:40:02;97304.94;;;5.15;100.00
13594;BME280;6449;47.666;9.160;2023-12-28T16:45:02;97289.13;;;5.19;100.00
13594;BME280;6449;47.666;9.160;2023-12-28T16:49:59;97290.88;;;5.19;100.00
13594;BME280;6449;47.666;9.160;2023-12-28T16:54:54;97304.84;;;5.16;100.00
13594;BME280;6449;47.666;9.160;2023-12-28T16:59:49;97290.13;;;5.17;100.00
13594;BME280;6449;47.666;9.160;2023-12-28T17:05:00;97283.94;;;5.19;100.00
13594;BME280;6449;47.666;9.160;2023-12-28T17:09:56;97280.19;;;5.25;100.00
13594;BME280;6449;47.666;9.160;2023-12-28T17:14:58;97274.84;;;5.28;100.00
13594;BME280;6449;47.666;9.160;2023-12-28T17:19:54;97282.81;;;5.42;100.00
13594;BME280;6449;47.666;9.160;2023-12-28T17:24:58;97278.31;;;5.46;100.00
13594;BME280;6449;47.666;9.160;2023-12-28T17:30:00;97292.22;;;5.62;100.00
13594;BME280;6449;47.666;9.160;2023-12-28T17:34:57;97282.97;;;5.74;100.00
13594;BME280;6449;47.666;9.160;2023-12-28T17:39:52;97293.16;;;5.61;100.00
13594;BME280;6449;47.666;9.160;2023-12-28T17:44:50;97296.81;;;5.57;100.00
13594;BME280;6449;47.666;9.160;2023-12-28T17:49:50;97293.28;;;5.58;100.00
13594;BME280;6449;47.666;9.160;2023-12-28T17:54:44;97299.28;;;5.60;100.00
13594;BME280;6449;47.666;9.160;2023-12-28T17:59:37;97317.47;;;5.60;100.00
13594;BME280;6449;47.666;9.160;2023-12-28T18:04:31;97323.44;;;5.62;100.00
13594;BME280;6449;47.666;9.160;2023-12-28T18:09:26;97321.53;;;5.66;100.00
13594;BME280;6449;47.666;9.160;2023-12-28T18:14:20;97321.66;;;5.80;100.00
13594;BME280;6449;47.666;9.160;2023-12-28T18:19:17;97326.50;;;5.70;100.00
13594;BME280;6449;47.666;9.160;2023-12-28T18:24:11;97330.84;;;5.70;100.00
13594;BME280;6449;47.666;9.160;2023-12-28T18:29:05;97322.69;;;5.60;100.00
13594;BME280;6449;47.666;9.160;2023-12-28T18:33:59;97341.84;;;5.58;100.00
13594;BME280;6449;47.666;9.160;2023-12-28T18:38:53;97340.25;;;5.55;100.00
13594;BME280;6449;47.666;9.160;2023-12-28T18:43:46;97328.19;;;5.54;100.00
13594;BME280;6449;47.666;9.160;2023-12-28T18:48:41;97329.59;;;5.42;100.00
13594;BME280;6449;47.666;9.160;2023-12-28T18:53:35;97323.25;;;5.31;100.00
13594;BME280;6449;47.666;9.160;2023-12-28T18:58:31;97312.63;;;5.35;100.00
13594;BME280;6449;47.666;9.160;2023-12-28T19:03:24;97332.41;;;5.38;100.00
13594;BME280;6449;47.666;9.160;2023-12-28T19:08:22;97341.00;;;5.40;100.00
13594;BME280;6449;47.666;9.160;2023-12-28T19:13:16;97342.53;;;5.44;100.00
13594;BME280;6449;47.666;9.160;2023-12-28T19:18:09;97335.59;;;5.44;100.00
13594;BME280;6449;47.666;9.160;2023-12-28T19:23:03;97339.69;;;5.48;100.00
13594;BME280;6449;47.666;9.160;2023-12-28T19:28:00;97334.22;;;5.55;100.00
13594;BME280;6449;47.666;9.160;2023-12-28T19:32:54;97332.91;;;5.63;100.00
13594;BME280;6449;47.666;9.160;2023-12-28T19:37:47;97339.13;;;5.61;100.00
13594;BME280;6449;47.666;9.160;2023-12-28T19:42:42;97328.25;;;5.70;100.00
13594;BME280;6449;47.666;9.160;2023-12-28T19:47:37;97320.31;;;5.73;100.00
13594;BME280;6449;47.666;9.160;2023-12-28T19:52:31;97302.94;;;5.73;100.00
13594;BME280;6449;47.666;9.160;2023-12-28T19:57:27;97315.94;;;5.91;100.00
13594;BME280;6449;47.666;9.160;2023-12-28T20:02:20;97293.53;;;5.88;100.00
13594;BME280;6449;47.666;9.160;2023-12-28T20:07:21;97281.25;;;5.90;100.00
13594;BME280;6449;47.666;9.160;2023-12-28T20:12:14;97270.09;;;5.88;100.00
13594;BME280;6449;47.666;9.160;2023-12-28T20:17:08;97260.53;;;5.89;100.00
13594;BME280;6449;47.666;9.160;2023-12-28T20:22:05;97290.44;;;5.80;100.00
13594;BME280;6449;47.666;9.160;2023-12-28T20:27:03;97312.41;;;5.74;100.00
13594;BME280;6449;47.666;9.160;2023-12-28T20:32:03;97320.78;;;5.81;100.00
13594;BME280;6449;47.666;9.160;2023-12-28T20:36:57;97307.50;;;5.86;100.00
13594;BME280;6449;47.666;9.160;2023-12-28T20:41:55;97308.44;;;5.85;100.00
13594;BME280;6449;47.666;9.160;2023-12-28T20:46:52;97312.28;;;5.77;100.00
13594;BME280;6449;47.666;9.160;2023-12-28T20:51:45;97295.44;;;5.85;100.00
13594;BME280;6449;47.666;9.160;2023-12-28T20:56:39;97294.28;;;5.90;100.00
13594;BME280;6449;47.666;9.160;2023-12-28T21:01:36;97291.47;;;5.95;100.00
13594;BME280;6449;47.666;9.160;2023-12-28T21:06:37;97293.53;;;6.06;100.00
13594;BME280;6449;47.666;9.160;2023-12-28T21:11:42;97323.47;;;6.14;100.00
13594;BME280;6449;47.666;9.160;2023-12-28T21:16:44;97341.06;;;6.09;100.00
13594;BME280;6449;47.666;9.160;2023-12-28T21:21:41;97316.56;;;6.13;100.00
13594;BME280;6449;47.666;9.160;2023-12-28T21:26:36;97309.84;;;6.09;100.00
13594;BME280;6449;47.666;9.160;2023-12-28T21:31:33;97310.03;;;6.22;100.00
13594;BME280;6449;47.666;9.160;2023-12-28T21:36:41;97321.91;;;6.27;100.00
13594;BME280;6449;47.666;9.160;2023-12-28T21:41:47;97329.03;;;6.24;100.00
13594;BME280;6449;47.666;9.160;2023-12-28T21:46:48;97331.59;;;6.08;100.00
13594;BME280;6449;47.666;9.160;2023-12-28T21:51:49;97346.91;;;5.97;100.00
13594;BME280;6449;47.666;9.160;2023-12-28T21:56:48;97355.28;;;5.85;100.00
13594;BME280;6449;47.666;9.160;2023-12-28T22:01:43;97346.19;;;5.76;100.00
13594;BME280;6449;47.666;9.160;2023-12-28T22:06:37;97336.22;;;5.67;100.00
13594;BME280;6449;47.666;9.160;2023-12-28T22:11:33;97344.53;;;5.56;100.00
13594;BME280;6449;47.666;9.160;2023-12-28T22:16:36;97338.72;;;5.51;100.00
13594;BME280;6449;47.666;9.160;2023-12-28T22:21:32;97335.59;;;5.44;100.00
13594;BME280;6449;47.666;9.160;2023-12-28T22:26:26;97341.00;;;5.40;100.00
13594;BME280;6449;47.666;9.160;2023-12-28T22:31:21;97342.28;;;5.31;100.00
13594;BME280;6449;47.666;9.160;2023-12-28T22:36:16;97346.22;;;5.21;100.00
13594;BME280;6449;47.666;9.160;2023-12-28T22:41:09;97337.03;;;5.14;100.00
13594;BME280;6449;47.666;9.160;2023-12-28T22:46:03;97338.47;;;5.02;100.00
13594;BME280;6449;47.666;9.160;2023-12-28T22:50:58;97335.44;;;4.92;100.00
13594;BME280;6449;47.666;9.160;2023-12-28T22:55:52;97337.28;;;4.90;100.00
13594;BME280;6449;47.666;9.160;2023-12-28T23:00:45;97338.16;;;4.89;100.00
13594;BME280;6449;47.666;9.160;2023-12-28T23:05:40;97338.13;;;4.91;100.00
13594;BME280;6449;47.666;9.160;2023-12-28T23:10:35;97321.69;;;4.90;100.00
13594;BME280;6449;47.666;9.160;2023-12-28T23:15:34;97322.53;;;4.91;100.00
13594;BME280;6449;47.666;9.160;2023-12-28T23:20:28;97324.56;;;4.65;100.00
13594;BME280;6449;47.666;9.160;2023-12-28T23:25:21;97325.31;;;4.67;100.00
13594;BME280;6449;47.666;9.160;2023-12-28T23:30:17;97320.56;;;4.58;100.00
13594;BME280;6449;47.666;9.160;2023-12-28T23:35:11;97316.22;;;4.59;100.00
13594;BME280;6449;47.666;9.160;2023-12-28T23:40:06;97330.63;;;4.45;100.00
13594;BME280;6449;47.666;9.160;2023-12-28T23:45:00;97328.84;;;4.47;100.00
13594;BME280;6449;47.666;9.160;2023-12-28T23:49:55;97313.81;;;4.54;100.00
13594;BME280;6449;47.666;9.160;2023-12-28T23:54:48;97306.72;;;4.39;100.00
13594;BME280;6449;47.666;9.160;2023-12-28T23:59:42;97288.47;;;4.40;100.00
